Drexel, Missouri
Current Conditions -  °F | °C
As of 11:53 AM on Thursday 27 Nov 2014 (Local Time) from KOJC Reporting Station
Clear Clear  
Wind Chill: 26°   Ceiling: Unl
Heat Index: 32°   Visibility: 8mi
Dew Point: 21°   Wind: 6mph
Humidity: 64%   Direction: 200°SSW
Pressure: 30.48"   Gusts: NA
Location:  38.48°N, 94.61°W
Report Text: KOJC 271753Z 20005KT 8SM CLR 00/M06 A3048 RMK AO2 SLP335 T00001061 10006 21050 58010
Loading
Personal Weather Stations






























Interactive Weather Map New forecast layout! Learn more

10-Day Weather Forecast

Advertisements
Track Severe Weather on mobile